sensor_id;sensor_type;location;lat;lon;timestamp;temperature;humidity
49379;DHT22;35254;47.990;-1.608;2023-02-18T00:00:09;15.80;68.10
49379;DHT22;35254;47.990;-1.608;2023-02-18T00:02:36;15.80;68.10
49379;DHT22;35254;47.990;-1.608;2023-02-18T00:05:01;15.80;68.00
49379;DHT22;35254;47.990;-1.608;2023-02-18T00:07:27;15.90;68.10
49379;DHT22;35254;47.990;-1.608;2023-02-18T00:09:53;15.80;68.10
49379;DHT22;35254;47.990;-1.608;2023-02-18T00:12:18;15.90;68.10
49379;DHT22;35254;47.990;-1.608;2023-02-18T00:14:44;15.80;68.10
49379;DHT22;35254;47.990;-1.608;2023-02-18T00:17:10;15.80;68.10
49379;DHT22;35254;47.990;-1.608;2023-02-18T00:19:35;15.80;68.00
49379;DHT22;35254;47.990;-1.608;2023-02-18T00:22:01;15.80;68.00
49379;DHT22;35254;47.990;-1.608;2023-02-18T00:24:26;15.80;68.00
49379;DHT22;35254;47.990;-1.608;2023-02-18T00:26:52;15.80;68.10
49379;DHT22;35254;47.990;-1.608;2023-02-18T00:29:19;15.80;68.10
49379;DHT22;35254;47.990;-1.608;2023-02-18T00:31:45;15.80;68.10
49379;DHT22;35254;47.990;-1.608;2023-02-18T00:34:11;15.80;68.10
49379;DHT22;35254;47.990;-1.608;2023-02-18T00:36:37;15.80;68.10
49379;DHT22;35254;47.990;-1.608;2023-02-18T00:39:06;15.80;68.10
49379;DHT22;35254;47.990;-1.608;2023-02-18T00:41:32;15.80;68.10
49379;DHT22;35254;47.990;-1.608;2023-02-18T00:43:58;15.80;68.20
49379;DHT22;35254;47.990;-1.608;2023-02-18T00:46:25;15.80;68.10
49379;DHT22;35254;47.990;-1.608;2023-02-18T00:48:52;15.80;68.10
49379;DHT22;35254;47.990;-1.608;2023-02-18T00:51:18;15.70;68.10
49379;DHT22;35254;47.990;-1.608;2023-02-18T00:53:43;15.80;68.20
49379;DHT22;35254;47.990;-1.608;2023-02-18T00:56:09;15.70;68.10
49379;DHT22;35254;47.990;-1.608;2023-02-18T00:58:35;15.80;68.10
49379;DHT22;35254;47.990;-1.608;2023-02-18T01:01:02;15.70;68.00
49379;DHT22;35254;47.990;-1.608;2023-02-18T01:03:28;15.70;68.10
49379;DHT22;35254;47.990;-1.608;2023-02-18T01:05:54;15.70;68.00
49379;DHT22;35254;47.990;-1.608;2023-02-18T01:08:21;15.70;68.00
49379;DHT22;35254;47.990;-1.608;2023-02-18T01:10:48;15.70;68.10
49379;DHT22;35254;47.990;-1.608;2023-02-18T01:13:15;15.70;68.10
49379;DHT22;35254;47.990;-1.608;2023-02-18T01:15:42;15.70;68.00
49379;DHT22;35254;47.990;-1.608;2023-02-18T01:18:09;15.70;68.00
49379;DHT22;35254;47.990;-1.608;2023-02-18T01:20:35;15.80;68.00
49379;DHT22;35254;47.990;-1.608;2023-02-18T01:23:02;15.70;68.00
49379;DHT22;35254;47.990;-1.608;2023-02-18T01:25:28;15.70;68.00
49379;DHT22;35254;47.990;-1.608;2023-02-18T01:27:54;15.70;68.00
49379;DHT22;35254;47.990;-1.608;2023-02-18T01:30:20;15.70;68.00
49379;DHT22;35254;47.990;-1.608;2023-02-18T01:32:46;15.70;68.00
49379;DHT22;35254;47.990;-1.608;2023-02-18T01:35:17;15.70;68.00
49379;DHT22;35254;47.990;-1.608;2023-02-18T01:37:43;15.70;68.00
49379;DHT22;35254;47.990;-1.608;2023-02-18T01:40:14;15.70;68.00
49379;DHT22;35254;47.990;-1.608;2023-02-18T01:42:40;15.70;68.00
49379;DHT22;35254;47.990;-1.608;2023-02-18T01:48:05;15.70;68.00
49379;DHT22;35254;47.990;-1.608;2023-02-18T01:50:36;15.70;68.00
49379;DHT22;35254;47.990;-1.608;2023-02-18T01:53:03;15.70;68.00
49379;DHT22;35254;47.990;-1.608;2023-02-18T01:55:29;15.70;68.00
49379;DHT22;35254;47.990;-1.608;2023-02-18T01:57:54;15.70;68.00
49379;DHT22;35254;47.990;-1.608;2023-02-18T02:00:20;15.70;67.90
49379;DHT22;35254;47.990;-1.608;2023-02-18T02:02:47;15.70;68.00
49379;DHT22;35254;47.990;-1.608;2023-02-18T02:05:13;15.70;68.00
49379;DHT22;35254;47.990;-1.608;2023-02-18T02:07:41;15.70;67.90
49379;DHT22;35254;47.990;-1.608;2023-02-18T02:10:08;15.70;67.90
49379;DHT22;35254;47.990;-1.608;2023-02-18T02:18:49;15.70;67.90
49379;DHT22;35254;47.990;-1.608;2023-02-18T02:34:57;15.70;68.00
49379;DHT22;35254;47.990;-1.608;2023-02-18T02:37:27;15.70;67.90
49379;DHT22;35254;47.990;-1.608;2023-02-18T02:45:32;15.70;67.80
49379;DHT22;35254;47.990;-1.608;2023-02-18T02:50:55;15.70;67.70
49379;DHT22;35254;47.990;-1.608;2023-02-18T02:53:29;15.70;67.70
49379;DHT22;35254;47.990;-1.608;2023-02-18T02:55:55;15.70;67.60
49379;DHT22;35254;47.990;-1.608;2023-02-18T02:58:21;15.70;67.70
49379;DHT22;35254;47.990;-1.608;2023-02-18T03:06:32;15.70;67.60
49379;DHT22;35254;47.990;-1.608;2023-02-18T03:11:50;15.70;67.60
49379;DHT22;35254;47.990;-1.608;2023-02-18T03:14:45;15.70;67.50
49379;DHT22;35254;47.990;-1.608;2023-02-18T03:17:21;15.70;67.60
49379;DHT22;35254;47.990;-1.608;2023-02-18T03:19:54;15.70;67.60
49379;DHT22;35254;47.990;-1.608;2023-02-18T03:22:26;15.70;67.50
49379;DHT22;35254;47.990;-1.608;2023-02-18T03:24:55;15.70;67.60
49379;DHT22;35254;47.990;-1.608;2023-02-18T03:27:28;15.70;67.50
49379;DHT22;35254;47.990;-1.608;2023-02-18T03:30:03;15.70;67.50
49379;DHT22;35254;47.990;-1.608;2023-02-18T03:32:30;15.70;67.50
49379;DHT22;35254;47.990;-1.608;2023-02-18T03:35:02;15.70;67.50
49379;DHT22;35254;47.990;-1.608;2023-02-18T03:37:30;15.70;67.50
49379;DHT22;35254;47.990;-1.608;2023-02-18T03:39:59;15.70;67.50
49379;DHT22;35254;47.990;-1.608;2023-02-18T03:42:27;15.70;67.40
49379;DHT22;35254;47.990;-1.608;2023-02-18T03:44:53;15.70;67.40
49379;DHT22;35254;47.990;-1.608;2023-02-18T03:47:18;15.70;67.40
49379;DHT22;35254;47.990;-1.608;2023-02-18T03:49:44;15.70;67.40
49379;DHT22;35254;47.990;-1.608;2023-02-18T03:52:10;15.70;67.40
49379;DHT22;35254;47.990;-1.608;2023-02-18T03:54:36;15.70;67.40
49379;DHT22;35254;47.990;-1.608;2023-02-18T03:57:01;15.70;67.30
49379;DHT22;35254;47.990;-1.608;2023-02-18T03:59:27;15.70;67.30
49379;DHT22;35254;47.990;-1.608;2023-02-18T04:01:53;15.70;67.30
49379;DHT22;35254;47.990;-1.608;2023-02-18T04:04:19;15.70;67.30
49379;DHT22;35254;47.990;-1.608;2023-02-18T04:06:44;15.70;67.30
49379;DHT22;35254;47.990;-1.608;2023-02-18T04:09:10;15.70;67.30
49379;DHT22;35254;47.990;-1.608;2023-02-18T04:11:37;15.70;67.40
49379;DHT22;35254;47.990;-1.608;2023-02-18T04:14:04;15.70;67.30
49379;DHT22;35254;47.990;-1.608;2023-02-18T04:16:29;15.70;67.30
49379;DHT22;35254;47.990;-1.608;2023-02-18T04:18:55;15.70;67.30
49379;DHT22;35254;47.990;-1.608;2023-02-18T04:21:21;15.70;67.20
49379;DHT22;35254;47.990;-1.608;2023-02-18T04:23:46;15.70;67.30
49379;DHT22;35254;47.990;-1.608;2023-02-18T04:26:12;15.70;67.20
49379;DHT22;35254;47.990;-1.608;2023-02-18T04:28:37;15.70;67.20
49379;DHT22;35254;47.990;-1.608;2023-02-18T04:31:03;15.70;67.10
49379;DHT22;35254;47.990;-1.608;2023-02-18T04:33:29;15.80;67.10
49379;DHT22;35254;47.990;-1.608;2023-02-18T04:35:55;15.80;67.20
49379;DHT22;35254;47.990;-1.608;2023-02-18T04:38:20;15.70;67.20
49379;DHT22;35254;47.990;-1.608;2023-02-18T04:40:46;15.80;67.20
49379;DHT22;35254;47.990;-1.608;2023-02-18T04:43:12;15.80;67.10
49379;DHT22;35254;47.990;-1.608;2023-02-18T04:45:37;15.80;67.10
49379;DHT22;35254;47.990;-1.608;2023-02-18T04:48:03;15.80;67.10
49379;DHT22;35254;47.990;-1.608;2023-02-18T04:50:29;15.70;67.10
49379;DHT22;35254;47.990;-1.608;2023-02-18T04:52:55;15.80;67.10
49379;DHT22;35254;47.990;-1.608;2023-02-18T04:55:20;15.80;67.10
49379;DHT22;35254;47.990;-1.608;2023-02-18T04:57:46;15.80;67.10
49379;DHT22;35254;47.990;-1.608;2023-02-18T05:00:17;15.80;67.00
49379;DHT22;35254;47.990;-1.608;2023-02-18T05:02:44;15.80;67.00
49379;DHT22;35254;47.990;-1.608;2023-02-18T05:05:10;15.80;67.00
49379;DHT22;35254;47.990;-1.608;2023-02-18T05:07:36;15.80;67.00
49379;DHT22;35254;47.990;-1.608;2023-02-18T05:10:02;15.70;66.90
49379;DHT22;35254;47.990;-1.608;2023-02-18T05:12:28;15.80;67.00
49379;DHT22;35254;47.990;-1.608;2023-02-18T05:14:54;15.80;67.00
49379;DHT22;35254;47.990;-1.608;2023-02-18T05:17:19;15.80;66.90
49379;DHT22;35254;47.990;-1.608;2023-02-18T05:19:45;15.80;67.00
49379;DHT22;35254;47.990;-1.608;2023-02-18T05:22:10;15.80;66.90
49379;DHT22;35254;47.990;-1.608;2023-02-18T05:24:36;15.80;66.80
49379;DHT22;35254;47.990;-1.608;2023-02-18T05:27:01;15.80;67.00
49379;DHT22;35254;47.990;-1.608;2023-02-18T05:29:27;15.80;66.90
49379;DHT22;35254;47.990;-1.608;2023-02-18T05:31:53;15.70;66.90
49379;DHT22;35254;47.990;-1.608;2023-02-18T05:34:18;15.70;67.00
49379;DHT22;35254;47.990;-1.608;2023-02-18T05:36:44;15.80;67.00
49379;DHT22;35254;47.990;-1.608;2023-02-18T05:39:10;15.70;66.80
49379;DHT22;35254;47.990;-1.608;2023-02-18T05:41:35;15.80;66.80
49379;DHT22;35254;47.990;-1.608;2023-02-18T05:44:01;15.80;66.90
49379;DHT22;35254;47.990;-1.608;2023-02-18T05:46:45;15.80;66.80
49379;DHT22;35254;47.990;-1.608;2023-02-18T05:49:11;15.80;67.10
49379;DHT22;35254;47.990;-1.608;2023-02-18T05:51:36;15.80;66.80
49379;DHT22;35254;47.990;-1.608;2023-02-18T05:54:02;15.80;66.80
49379;DHT22;35254;47.990;-1.608;2023-02-18T05:56:28;15.80;66.70
49379;DHT22;35254;47.990;-1.608;2023-02-18T05:58:54;15.80;66.70
49379;DHT22;35254;47.990;-1.608;2023-02-18T06:01:19;15.70;66.70
49379;DHT22;35254;47.990;-1.608;2023-02-18T06:03:45;15.80;66.70
49379;DHT22;35254;47.990;-1.608;2023-02-18T06:06:10;15.80;66.80
49379;DHT22;35254;47.990;-1.608;2023-02-18T06:08:36;15.80;66.70
49379;DHT22;35254;47.990;-1.608;2023-02-18T06:11:02;15.80;66.70
49379;DHT22;35254;47.990;-1.608;2023-02-18T06:13:28;15.80;66.70
49379;DHT22;35254;47.990;-1.608;2023-02-18T06:15:53;15.80;66.60
49379;DHT22;35254;47.990;-1.608;2023-02-18T06:18:20;15.90;66.60
49379;DHT22;35254;47.990;-1.608;2023-02-18T06:20:46;15.80;66.50
49379;DHT22;35254;47.990;-1.608;2023-02-18T06:23:12;15.80;66.60
49379;DHT22;35254;47.990;-1.608;2023-02-18T06:25:38;15.80;66.60
49379;DHT22;35254;47.990;-1.608;2023-02-18T06:28:04;15.80;66.50
49379;DHT22;35254;47.990;-1.608;2023-02-18T06:30:30;15.90;66.60
49379;DHT22;35254;47.990;-1.608;2023-02-18T06:32:55;15.80;66.50
49379;DHT22;35254;47.990;-1.608;2023-02-18T06:35:21;15.90;66.50
49379;DHT22;35254;47.990;-1.608;2023-02-18T06:37:46;15.90;66.50
49379;DHT22;35254;47.990;-1.608;2023-02-18T06:40:12;15.90;66.50
49379;DHT22;35254;47.990;-1.608;2023-02-18T06:42:38;15.90;66.40
49379;DHT22;35254;47.990;-1.608;2023-02-18T06:45:03;15.90;66.40
49379;DHT22;35254;47.990;-1.608;2023-02-18T06:47:31;15.90;66.40
49379;DHT22;35254;47.990;-1.608;2023-02-18T06:49:57;15.90;66.40
49379;DHT22;35254;47.990;-1.608;2023-02-18T06:52:22;15.90;66.30
49379;DHT22;35254;47.990;-1.608;2023-02-18T06:54:48;16.00;66.30
49379;DHT22;35254;47.990;-1.608;2023-02-18T06:57:14;15.90;66.20
49379;DHT22;35254;47.990;-1.608;2023-02-18T06:59:39;15.90;66.20
49379;DHT22;35254;47.990;-1.608;2023-02-18T07:02:05;15.90;66.20
49379;DHT22;35254;47.990;-1.608;2023-02-18T07:04:31;16.00;66.20
49379;DHT22;35254;47.990;-1.608;2023-02-18T07:06:56;15.90;66.20
49379;DHT22;35254;47.990;-1.608;2023-02-18T07:09:22;16.00;66.10
49379;DHT22;35254;47.990;-1.608;2023-02-18T07:11:47;16.00;66.10
49379;DHT22;35254;47.990;-1.608;2023-02-18T07:14:13;16.00;66.10
49379;DHT22;35254;47.990;-1.608;2023-02-18T07:16:39;16.00;66.00
49379;DHT22;35254;47.990;-1.608;2023-02-18T07:19:04;16.00;66.00
49379;DHT22;35254;47.990;-1.608;2023-02-18T07:21:30;16.00;66.00
49379;DHT22;35254;47.990;-1.608;2023-02-18T07:23:55;16.00;66.00
49379;DHT22;35254;47.990;-1.608;2023-02-18T07:26:21;16.00;66.00
49379;DHT22;35254;47.990;-1.608;2023-02-18T07:28:47;16.00;66.00
49379;DHT22;35254;47.990;-1.608;2023-02-18T07:31:12;16.00;66.00
49379;DHT22;35254;47.990;-1.608;2023-02-18T07:33:38;15.90;65.90
49379;DHT22;35254;47.990;-1.608;2023-02-18T07:36:04;15.90;65.90
49379;DHT22;35254;47.990;-1.608;2023-02-18T07:38:30;16.00;65.90
49379;DHT22;35254;47.990;-1.608;2023-02-18T07:40:56;16.00;65.90
49379;DHT22;35254;47.990;-1.608;2023-02-18T07:43:22;16.00;65.80
49379;DHT22;35254;47.990;-1.608;2023-02-18T07:45:48;16.00;65.90
49379;DHT22;35254;47.990;-1.608;2023-02-18T07:48:15;16.00;65.90
49379;DHT22;35254;47.990;-1.608;2023-02-18T07:50:43;16.00;65.80
49379;DHT22;35254;47.990;-1.608;2023-02-18T07:53:10;16.00;65.70
49379;DHT22;35254;47.990;-1.608;2023-02-18T07:55:36;16.00;65.80
49379;DHT22;35254;47.990;-1.608;2023-02-18T07:58:19;16.00;65.80
49379;DHT22;35254;47.990;-1.608;2023-02-18T08:00:45;16.00;65.90
49379;DHT22;35254;47.990;-1.608;2023-02-18T08:03:13;16.00;65.80
49379;DHT22;35254;47.990;-1.608;2023-02-18T08:05:39;16.00;65.80
49379;DHT22;35254;47.990;-1.608;2023-02-18T08:08:05;16.00;65.70
49379;DHT22;35254;47.990;-1.608;2023-02-18T08:10:31;16.00;65.70
49379;DHT22;35254;47.990;-1.608;2023-02-18T08:12:56;16.00;65.60
49379;DHT22;35254;47.990;-1.608;2023-02-18T08:15:22;16.00;65.60
49379;DHT22;35254;47.990;-1.608;2023-02-18T08:17:47;16.00;65.60
49379;DHT22;35254;47.990;-1.608;2023-02-18T08:20:13;16.10;65.50
49379;DHT22;35254;47.990;-1.608;2023-02-18T08:22:39;16.00;65.60
49379;DHT22;35254;47.990;-1.608;2023-02-18T08:25:05;16.00;65.60
49379;DHT22;35254;47.990;-1.608;2023-02-18T08:27:31;16.10;65.60
49379;DHT22;35254;47.990;-1.608;2023-02-18T08:29:56;16.10;65.60
49379;DHT22;35254;47.990;-1.608;2023-02-18T08:32:26;16.00;65.50
49379;DHT22;35254;47.990;-1.608;2023-02-18T08:34:52;16.00;65.50
49379;DHT22;35254;47.990;-1.608;2023-02-18T08:37:17;16.10;65.50
49379;DHT22;35254;47.990;-1.608;2023-02-18T08:39:43;16.00;65.50
49379;DHT22;35254;47.990;-1.608;2023-02-18T08:42:09;16.10;65.50
49379;DHT22;35254;47.990;-1.608;2023-02-18T08:44:34;16.10;65.50
49379;DHT22;35254;47.990;-1.608;2023-02-18T08:47:00;16.10;65.50
49379;DHT22;35254;47.990;-1.608;2023-02-18T08:49:25;16.10;65.50
49379;DHT22;35254;47.990;-1.608;2023-02-18T08:51:51;16.10;65.40
49379;DHT22;35254;47.990;-1.608;2023-02-18T08:54:17;16.10;65.50
49379;DHT22;35254;47.990;-1.608;2023-02-18T08:56:43;16.10;65.50
49379;DHT22;35254;47.990;-1.608;2023-02-18T08:59:09;16.10;65.40
49379;DHT22;35254;47.990;-1.608;2023-02-18T09:01:35;16.10;65.40
49379;DHT22;35254;47.990;-1.608;2023-02-18T09:04:01;16.10;65.40
49379;DHT22;35254;47.990;-1.608;2023-02-18T09:06:26;16.10;65.40
49379;DHT22;35254;47.990;-1.608;2023-02-18T09:08:52;16.10;65.40
49379;DHT22;35254;47.990;-1.608;2023-02-18T09:11:18;16.10;65.30
49379;DHT22;35254;47.990;-1.608;2023-02-18T09:13:44;16.10;65.30
49379;DHT22;35254;47.990;-1.608;2023-02-18T09:16:15;16.10;65.40
49379;DHT22;35254;47.990;-1.608;2023-02-18T09:18:43;16.10;65.30
49379;DHT22;35254;47.990;-1.608;2023-02-18T09:21:11;16.10;65.30
49379;DHT22;35254;47.990;-1.608;2023-02-18T09:23:37;16.10;65.30
49379;DHT22;35254;47.990;-1.608;2023-02-18T09:26:09;16.10;65.30
49379;DHT22;35254;47.990;-1.608;2023-02-18T09:28:35;16.10;65.40
49379;DHT22;35254;47.990;-1.608;2023-02-18T09:31:09;16.10;65.30
49379;DHT22;35254;47.990;-1.608;2023-02-18T09:33:36;16.10;65.40
49379;DHT22;35254;47.990;-1.608;2023-02-18T09:36:03;16.10;65.30
49379;DHT22;35254;47.990;-1.608;2023-02-18T09:38:29;16.10;65.30
49379;DHT22;35254;47.990;-1.608;2023-02-18T09:40:55;16.10;65.30
49379;DHT22;35254;47.990;-1.608;2023-02-18T09:43:40;16.10;65.30
49379;DHT22;35254;47.990;-1.608;2023-02-18T09:46:38;16.10;65.30
49379;DHT22;35254;47.990;-1.608;2023-02-18T09:49:06;16.20;65.30
49379;DHT22;35254;47.990;-1.608;2023-02-18T09:51:32;16.10;65.20
49379;DHT22;35254;47.990;-1.608;2023-02-18T09:53:58;16.10;65.20
49379;DHT22;35254;47.990;-1.608;2023-02-18T09:56:31;16.20;65.40
49379;DHT22;35254;47.990;-1.608;2023-02-18T09:58:58;16.20;65.30
49379;DHT22;35254;47.990;-1.608;2023-02-18T10:01:32;16.20;65.30
49379;DHT22;35254;47.990;-1.608;2023-02-18T10:04:21;16.10;65.20
49379;DHT22;35254;47.990;-1.608;2023-02-18T10:06:52;16.20;65.20
49379;DHT22;35254;47.990;-1.608;2023-02-18T10:11:50;16.20;65.20
49379;DHT22;35254;47.990;-1.608;2023-02-18T10:14:16;16.20;65.30
49379;DHT22;35254;47.990;-1.608;2023-02-18T10:16:45;16.20;65.00
49379;DHT22;35254;47.990;-1.608;2023-02-18T10:19:33;16.20;64.30
49379;DHT22;35254;47.990;-1.608;2023-02-18T10:22:03;16.20;64.00
49379;DHT22;35254;47.990;-1.608;2023-02-18T10:24:35;16.20;63.50
49379;DHT22;35254;47.990;-1.608;2023-02-18T10:27:04;16.20;63.10
49379;DHT22;35254;47.990;-1.608;2023-02-18T10:29:30;16.20;62.90
49379;DHT22;35254;47.990;-1.608;2023-02-18T10:32:22;16.20;62.50
49379;DHT22;35254;47.990;-1.608;2023-02-18T10:48:38;16.20;61.50
49379;DHT22;35254;47.990;-1.608;2023-02-18T10:51:25;16.20;61.30
49379;DHT22;35254;47.990;-1.608;2023-02-18T10:53:53;16.20;61.40
49379;DHT22;35254;47.990;-1.608;2023-02-18T10:59:04;16.20;61.20
49379;DHT22;35254;47.990;-1.608;2023-02-18T11:01:33;16.10;61.10
49379;DHT22;35254;47.990;-1.608;2023-02-18T11:04:17;16.10;61.10
49379;DHT22;35254;47.990;-1.608;2023-02-18T11:06:45;16.10;61.10
49379;DHT22;35254;47.990;-1.608;2023-02-18T11:09:36;16.20;61.10
49379;DHT22;35254;47.990;-1.608;2023-02-18T11:14:45;16.10;60.90
49379;DHT22;35254;47.990;-1.608;2023-02-18T11:17:26;16.10;60.80
49379;DHT22;35254;47.990;-1.608;2023-02-18T11:19:55;16.20;61.00
49379;DHT22;35254;47.990;-1.608;2023-02-18T11:22:28;16.20;60.90
49379;DHT22;35254;47.990;-1.608;2023-02-18T11:24:57;16.10;60.70
49379;DHT22;35254;47.990;-1.608;2023-02-18T11:27:27;16.10;60.70
49379;DHT22;35254;47.990;-1.608;2023-02-18T11:30:04;16.10;60.80
49379;DHT22;35254;47.990;-1.608;2023-02-18T11:32:33;16.10;60.50
49379;DHT22;35254;47.990;-1.608;2023-02-18T11:35:01;16.10;60.60
49379;DHT22;35254;47.990;-1.608;2023-02-18T11:37:26;16.10;60.70
49379;DHT22;35254;47.990;-1.608;2023-02-18T11:39:53;16.10;60.60
49379;DHT22;35254;47.990;-1.608;2023-02-18T11:42:22;16.10;60.60
49379;DHT22;35254;47.990;-1.608;2023-02-18T11:44:59;16.10;60.50
49379;DHT22;35254;47.990;-1.608;2023-02-18T11:47:33;16.20;60.90
49379;DHT22;35254;47.990;-1.608;2023-02-18T11:52:40;16.20;61.50
49379;DHT22;35254;47.990;-1.608;2023-02-18T12:00:27;16.10;62.20
49379;DHT22;35254;47.990;-1.608;2023-02-18T12:02:57;16.20;62.50
49379;DHT22;35254;47.990;-1.608;2023-02-18T12:05:26;16.20;62.60
49379;DHT22;35254;47.990;-1.608;2023-02-18T12:08:23;16.10;62.90
49379;DHT22;35254;47.990;-1.608;2023-02-18T12:11:12;16.10;63.00
49379;DHT22;35254;47.990;-1.608;2023-02-18T12:13:49;16.20;63.10
49379;DHT22;35254;47.990;-1.608;2023-02-18T12:41:58;16.10;64.20
49379;DHT22;35254;47.990;-1.608;2023-02-18T12:47:16;16.10;64.20
49379;DHT22;35254;47.990;-1.608;2023-02-18T12:53:06;16.10;64.40
49379;DHT22;35254;47.990;-1.608;2023-02-18T12:55:56;16.10;64.50
49379;DHT22;35254;47.990;-1.608;2023-02-18T13:03:47;16.10;64.60
49379;DHT22;35254;47.990;-1.608;2023-02-18T13:06:41;16.20;64.60
49379;DHT22;35254;47.990;-1.608;2023-02-18T13:11:53;16.20;64.60
49379;DHT22;35254;47.990;-1.608;2023-02-18T13:14:23;16.10;64.60
49379;DHT22;35254;47.990;-1.608;2023-02-18T13:16:54;16.20;64.70
49379;DHT22;35254;47.990;-1.608;2023-02-18T13:19:30;16.10;64.70
49379;DHT22;35254;47.990;-1.608;2023-02-18T13:22:05;16.10;64.80
49379;DHT22;35254;47.990;-1.608;2023-02-18T13:24:40;16.10;64.80
49379;DHT22;35254;47.990;-1.608;2023-02-18T13:33:08;16.10;64.80
49379;DHT22;35254;47.990;-1.608;2023-02-18T13:41:26;16.10;64.80
49379;DHT22;35254;47.990;-1.608;2023-02-18T13:43:52;16.10;64.80
49379;DHT22;35254;47.990;-1.608;2023-02-18T13:46:23;16.10;64.90
49379;DHT22;35254;47.990;-1.608;2023-02-18T13:51:29;16.20;64.80
49379;DHT22;35254;47.990;-1.608;2023-02-18T13:54:05;16.20;64.80
49379;DHT22;35254;47.990;-1.608;2023-02-18T13:56:40;16.20;64.80
49379;DHT22;35254;47.990;-1.608;2023-02-18T13:59:20;16.20;65.00
49379;DHT22;35254;47.990;-1.608;2023-02-18T14:01:49;16.10;65.00
49379;DHT22;35254;47.990;-1.608;2023-02-18T14:04:34;16.10;65.10
49379;DHT22;35254;47.990;-1.608;2023-02-18T14:10:03;16.10;65.10
49379;DHT22;35254;47.990;-1.608;2023-02-18T14:26:03;16.10;65.40
49379;DHT22;35254;47.990;-1.608;2023-02-18T14:31:46;16.10;65.30
49379;DHT22;35254;47.990;-1.608;2023-02-18T14:42:14;16.10;65.40
49379;DHT22;35254;47.990;-1.608;2023-02-18T14:45:16;16.10;65.40
49379;DHT22;35254;47.990;-1.608;2023-02-18T14:50:48;16.10;65.50
49379;DHT22;35254;47.990;-1.608;2023-02-18T14:53:19;16.00;65.60
49379;DHT22;35254;47.990;-1.608;2023-02-18T14:55:47;16.00;65.60
49379;DHT22;35254;47.990;-1.608;2023-02-18T14:58:35;16.00;65.60
49379;DHT22;35254;47.990;-1.608;2023-02-18T15:01:18;16.00;65.60
49379;DHT22;35254;47.990;-1.608;2023-02-18T15:03:48;16.00;65.60
49379;DHT22;35254;47.990;-1.608;2023-02-18T15:06:30;16.00;65.70
49379;DHT22;35254;47.990;-1.608;2023-02-18T15:09:00;16.00;65.60
49379;DHT22;35254;47.990;-1.608;2023-02-18T15:11:38;16.00;65.70
49379;DHT22;35254;47.990;-1.608;2023-02-18T15:14:12;16.00;65.70
49379;DHT22;35254;47.990;-1.608;2023-02-18T15:16:41;16.00;65.80
49379;DHT22;35254;47.990;-1.608;2023-02-18T15:19:16;16.00;65.80
49379;DHT22;35254;47.990;-1.608;2023-02-18T15:21:45;16.00;65.90
49379;DHT22;35254;47.990;-1.608;2023-02-18T15:26:47;16.00;65.80
49379;DHT22;35254;47.990;-1.608;2023-02-18T15:29:24;16.10;65.80
49379;DHT22;35254;47.990;-1.608;2023-02-18T15:31:50;16.10;65.80
49379;DHT22;35254;47.990;-1.608;2023-02-18T15:34:31;16.00;65.80
49379;DHT22;35254;47.990;-1.608;2023-02-18T15:37:02;16.00;65.80
49379;DHT22;35254;47.990;-1.608;2023-02-18T15:39:29;16.00;65.80
49379;DHT22;35254;47.990;-1.608;2023-02-18T15:42:01;16.00;65.80
49379;DHT22;35254;47.990;-1.608;2023-02-18T15:44:29;16.10;65.90
49379;DHT22;35254;47.990;-1.608;2023-02-18T15:47:05;16.00;65.90
49379;DHT22;35254;47.990;-1.608;2023-02-18T15:49:35;16.10;65.90
49379;DHT22;35254;47.990;-1.608;2023-02-18T15:52:03;16.10;65.90
49379;DHT22;35254;47.990;-1.608;2023-02-18T15:54:30;16.00;65.80
49379;DHT22;35254;47.990;-1.608;2023-02-18T15:57:00;16.10;65.80
49379;DHT22;35254;47.990;-1.608;2023-02-18T15:59:27;16.00;65.90
49379;DHT22;35254;47.990;-1.608;2023-02-18T16:04:37;16.00;66.00
49379;DHT22;35254;47.990;-1.608;2023-02-18T16:07:48;16.00;66.00
49379;DHT22;35254;47.990;-1.608;2023-02-18T16:12:48;16.00;66.00
49379;DHT22;35254;47.990;-1.608;2023-02-18T16:15:59;16.00;66.10
49379;DHT22;35254;47.990;-1.608;2023-02-18T16:18:17;16.00;66.10
49379;DHT22;35254;47.990;-1.608;2023-02-18T16:20:53;16.00;66.20
49379;DHT22;35254;47.990;-1.608;2023-02-18T16:23:26;16.00;66.30
49379;DHT22;35254;47.990;-1.608;2023-02-18T16:25:54;16.00;66.20
49379;DHT22;35254;47.990;-1.608;2023-02-18T16:28:25;16.00;66.20
49379;DHT22;35254;47.990;-1.608;2023-02-18T16:30:55;16.00;66.10
49379;DHT22;35254;47.990;-1.608;2023-02-18T16:33:21;16.00;66.20
49379;DHT22;35254;47.990;-1.608;2023-02-18T16:35:47;16.00;66.10
49379;DHT22;35254;47.990;-1.608;2023-02-18T16:38:21;16.00;66.10
49379;DHT22;35254;47.990;-1.608;2023-02-18T16:40:47;16.00;66.10
49379;DHT22;35254;47.990;-1.608;2023-02-18T16:43:15;16.00;66.00
49379;DHT22;35254;47.990;-1.608;2023-02-18T16:45:55;16.00;66.00
49379;DHT22;35254;47.990;-1.608;2023-02-18T16:48:35;16.00;66.10
49379;DHT22;35254;47.990;-1.608;2023-02-18T16:51:05;16.00;66.00
49379;DHT22;35254;47.990;-1.608;2023-02-18T16:53:31;16.00;66.00
49379;DHT22;35254;47.990;-1.608;2023-02-18T16:55:57;16.00;66.10
49379;DHT22;35254;47.990;-1.608;2023-02-18T16:58:22;16.00;66.10
49379;DHT22;35254;47.990;-1.608;2023-02-18T17:00:50;16.00;66.10
49379;DHT22;35254;47.990;-1.608;2023-02-18T17:03:17;16.00;66.10
49379;DHT22;35254;47.990;-1.608;2023-02-18T17:05:43;16.00;66.10
49379;DHT22;35254;47.990;-1.608;2023-02-18T17:10:37;16.10;66.00
49379;DHT22;35254;47.990;-1.608;2023-02-18T17:13:02;16.10;66.00
49379;DHT22;35254;47.990;-1.608;2023-02-18T17:15:30;16.10;66.00
49379;DHT22;35254;47.990;-1.608;2023-02-18T17:17:58;16.00;66.00
49379;DHT22;35254;47.990;-1.608;2023-02-18T17:20:25;16.00;66.10
49379;DHT22;35254;47.990;-1.608;2023-02-18T17:22:51;16.00;66.10
49379;DHT22;35254;47.990;-1.608;2023-02-18T17:25:23;16.00;66.10
49379;DHT22;35254;47.990;-1.608;2023-02-18T17:27:50;16.00;66.10
49379;DHT22;35254;47.990;-1.608;2023-02-18T17:30:15;16.00;66.10
49379;DHT22;35254;47.990;-1.608;2023-02-18T17:32:43;16.00;66.00
49379;DHT22;35254;47.990;-1.608;2023-02-18T17:35:17;16.00;66.00
49379;DHT22;35254;47.990;-1.608;2023-02-18T17:37:44;16.00;66.00
49379;DHT22;35254;47.990;-1.608;2023-02-18T17:40:20;16.00;66.00
49379;DHT22;35254;47.990;-1.608;2023-02-18T17:42:47;16.00;66.00
49379;DHT22;35254;47.990;-1.608;2023-02-18T17:45:30;16.00;66.00
49379;DHT22;35254;47.990;-1.608;2023-02-18T17:47:58;16.00;66.10
49379;DHT22;35254;47.990;-1.608;2023-02-18T17:50:25;16.00;65.90
49379;DHT22;35254;47.990;-1.608;2023-02-18T17:52:51;16.00;65.90
49379;DHT22;35254;47.990;-1.608;2023-02-18T17:55:28;16.00;66.00
49379;DHT22;35254;47.990;-1.608;2023-02-18T17:57:54;16.00;65.80
49379;DHT22;35254;47.990;-1.608;2023-02-18T18:02:51;16.00;65.70
49379;DHT22;35254;47.990;-1.608;2023-02-18T18:05:24;16.00;65.70
49379;DHT22;35254;47.990;-1.608;2023-02-18T18:07:49;16.00;65.60
49379;DHT22;35254;47.990;-1.608;2023-02-18T18:10:17;15.90;65.50
49379;DHT22;35254;47.990;-1.608;2023-02-18T18:12:44;15.90;65.70